sensor_id;sensor_type;location;lat;lon;timestamp;pressure;altitude;pressure_sealevel;temperature;humidity
72428;BME280;60419;48.880;18.036;2022-10-04T00:05:05;99413.94;;;10.95;73.84
72428;BME280;60419;48.880;18.036;2022-10-04T00:07:56;99410.59;;;10.85;74.03
72428;BME280;60419;48.880;18.036;2022-10-04T00:10:43;99410.22;;;10.58;74.89
72428;BME280;60419;48.880;18.036;2022-10-04T00:13:29;99414.84;;;11.04;73.09
72428;BME280;60419;48.880;18.036;2022-10-04T00:16:21;99405.25;;;11.26;72.74
72428;BME280;60419;48.880;18.036;2022-10-04T00:28:15;99414.44;;;10.65;73.94
72428;BME280;60419;48.880;18.036;2022-10-04T00:31:20;99399.72;;;10.57;73.70
72428;BME280;60419;48.880;18.036;2022-10-04T00:36:54;99389.31;;;10.97;72.95
72428;BME280;60419;48.880;18.036;2022-10-04T00:39:42;99386.50;;;11.16;72.18
72428;BME280;60419;48.880;18.036;2022-10-04T00:45:33;99387.22;;;11.21;72.08
72428;BME280;60419;48.880;18.036;2022-10-04T00:51:31;99384.84;;;11.56;71.05
72428;BME280;60419;48.880;18.036;2022-10-04T00:58:00;99374.88;;;11.93;69.23
72428;BME280;60419;48.880;18.036;2022-10-04T01:00:20;99379.09;;;11.21;70.77
72428;BME280;60419;48.880;18.036;2022-10-04T01:03:12;99387.91;;;11.27;71.63
72428;BME280;60419;48.880;18.036;2022-10-04T01:06:00;99362.63;;;10.76;72.90
72428;BME280;60419;48.880;18.036;2022-10-04T01:08:53;99374.19;;;10.96;72.77
72428;BME280;60419;48.880;18.036;2022-10-04T01:11:44;99365.63;;;10.28;74.40
72428;BME280;60419;48.880;18.036;2022-10-04T01:14:44;99351.03;;;10.29;74.55
72428;BME280;60419;48.880;18.036;2022-10-04T01:17:34;99352.63;;;10.77;73.21
72428;BME280;60419;48.880;18.036;2022-10-04T01:20:31;99350.34;;;11.12;71.95
72428;BME280;60419;48.880;18.036;2022-10-04T01:23:39;99371.38;;;10.87;72.72
72428;BME280;60419;48.880;18.036;2022-10-04T01:29:23;99374.09;;;11.01;72.55
72428;BME280;60419;48.880;18.036;2022-10-04T01:32:09;99366.97;;;11.19;71.93
72428;BME280;60419;48.880;18.036;2022-10-04T01:34:56;99365.38;;;11.32;71.35
72428;BME280;60419;48.880;18.036;2022-10-04T01:37:42;99366.38;;;11.22;71.60
72428;BME280;60419;48.880;18.036;2022-10-04T01:40:29;99357.59;;;11.02;72.22
72428;BME280;60419;48.880;18.036;2022-10-04T01:43:22;99345.66;;;10.90;72.23
72428;BME280;60419;48.880;18.036;2022-10-04T01:46:30;99360.88;;;10.99;71.72
72428;BME280;60419;48.880;18.036;2022-10-04T01:49:19;99341.44;;;11.11;71.07
72428;BME280;60419;48.880;18.036;2022-10-04T01:52:14;99347.50;;;10.75;72.02
72428;BME280;60419;48.880;18.036;2022-10-04T01:55:17;99317.00;;;10.75;71.88
72428;BME280;60419;48.880;18.036;2022-10-04T01:58:32;99352.06;;;10.94;72.05
72428;BME280;60419;48.880;18.036;2022-10-04T02:01:31;99340.72;;;10.78;72.61
72428;BME280;60419;48.880;18.036;2022-10-04T02:04:20;99346.44;;;10.76;72.72
72428;BME280;60419;48.880;18.036;2022-10-04T02:07:12;99349.25;;;10.99;72.41
72428;BME280;60419;48.880;18.036;2022-10-04T02:10:01;99339.91;;;10.64;72.76
72428;BME280;60419;48.880;18.036;2022-10-04T02:12:50;99334.53;;;10.91;71.99
72428;BME280;60419;48.880;18.036;2022-10-04T02:15:38;99320.53;;;11.03;71.14
72428;BME280;60419;48.880;18.036;2022-10-04T02:18:25;99343.50;;;10.73;72.66
72428;BME280;60419;48.880;18.036;2022-10-04T02:21:12;99332.81;;;10.81;72.71
72428;BME280;60419;48.880;18.036;2022-10-04T02:23:59;99333.34;;;10.83;72.55
72428;BME280;60419;48.880;18.036;2022-10-04T02:26:49;99345.16;;;11.01;72.03
72428;BME280;60419;48.880;18.036;2022-10-04T02:29:35;99337.25;;;10.91;72.21
72428;BME280;60419;48.880;18.036;2022-10-04T02:32:21;99337.50;;;10.62;73.44
72428;BME280;60419;48.880;18.036;2022-10-04T02:35:54;99325.84;;;10.94;72.79
72428;BME280;60419;48.880;18.036;2022-10-04T02:39:03;99341.66;;;11.29;71.53
72428;BME280;60419;48.880;18.036;2022-10-04T02:42:01;99336.84;;;11.12;71.44
72428;BME280;60419;48.880;18.036;2022-10-04T02:44:49;99340.63;;;11.24;71.37
72428;BME280;60419;48.880;18.036;2022-10-04T02:47:44;99341.66;;;11.29;71.34
72428;BME280;60419;48.880;18.036;2022-10-04T02:50:51;99335.47;;;11.51;70.75
72428;BME280;60419;48.880;18.036;2022-10-04T02:56:51;99339.94;;;11.19;71.85
72428;BME280;60419;48.880;18.036;2022-10-04T02:59:38;99327.53;;;11.04;71.88
72428;BME280;60419;48.880;18.036;2022-10-04T03:02:25;99318.50;;;11.22;71.58
72428;BME280;60419;48.880;18.036;2022-10-04T03:05:12;99321.91;;;11.14;71.82
72428;BME280;60419;48.880;18.036;2022-10-04T03:07:59;99320.84;;;11.15;71.98
72428;BME280;60419;48.880;18.036;2022-10-04T03:10:45;99317.63;;;11.13;72.31
72428;BME280;60419;48.880;18.036;2022-10-04T03:13:32;99315.50;;;11.24;71.74
72428;BME280;60419;48.880;18.036;2022-10-04T03:16:19;99318.31;;;10.91;72.99
72428;BME280;60419;48.880;18.036;2022-10-04T03:19:06;99314.94;;;10.99;73.05
72428;BME280;60419;48.880;18.036;2022-10-04T03:21:55;99321.19;;;11.22;72.54
72428;BME280;60419;48.880;18.036;2022-10-04T03:24:46;99294.59;;;11.16;72.12
72428;BME280;60419;48.880;18.036;2022-10-04T03:27:33;99316.84;;;11.13;72.68
72428;BME280;60419;48.880;18.036;2022-10-04T03:30:20;99322.53;;;10.97;73.40
72428;BME280;60419;48.880;18.036;2022-10-04T03:33:05;99319.00;;;11.38;72.31
72428;BME280;60419;48.880;18.036;2022-10-04T03:35:53;99319.03;;;11.11;73.04
72428;BME280;60419;48.880;18.036;2022-10-04T03:38:39;99297.19;;;11.21;72.60
72428;BME280;60419;48.880;18.036;2022-10-04T03:41:25;99327.66;;;11.63;71.79
72428;BME280;60419;48.880;18.036;2022-10-04T03:44:14;99325.44;;;11.51;71.96
72428;BME280;60419;48.880;18.036;2022-10-04T03:47:01;99327.94;;;11.61;71.79
72428;BME280;60419;48.880;18.036;2022-10-04T03:49:52;99322.19;;;11.77;71.13
72428;BME280;60419;48.880;18.036;2022-10-04T03:52:56;99332.16;;;11.54;71.44
72428;BME280;60419;48.880;18.036;2022-10-04T03:55:43;99325.50;;;11.37;71.85
72428;BME280;60419;48.880;18.036;2022-10-04T03:58:29;99306.44;;;11.42;71.39
72428;BME280;60419;48.880;18.036;2022-10-04T04:04:39;99337.03;;;12.02;70.26
72428;BME280;60419;48.880;18.036;2022-10-04T04:07:38;99330.69;;;12.29;69.45
72428;BME280;60419;48.880;18.036;2022-10-04T04:10:33;99333.09;;;11.85;70.57
72428;BME280;60419;48.880;18.036;2022-10-04T04:13:40;99332.81;;;12.18;70.01
72428;BME280;60419;48.880;18.036;2022-10-04T04:16:29;99334.50;;;11.83;69.10
72428;BME280;60419;48.880;18.036;2022-10-04T04:19:17;99336.53;;;12.00;69.97
72428;BME280;60419;48.880;18.036;2022-10-04T04:22:03;99341.00;;;11.82;70.19
72428;BME280;60419;48.880;18.036;2022-10-04T04:24:49;99347.78;;;12.16;69.60
72428;BME280;60419;48.880;18.036;2022-10-04T04:27:38;99344.72;;;12.53;68.26
72428;BME280;60419;48.880;18.036;2022-10-04T04:30:25;99350.66;;;12.64;67.76
72428;BME280;60419;48.880;18.036;2022-10-04T04:33:42;99345.69;;;12.97;66.92
72428;BME280;60419;48.880;18.036;2022-10-04T04:36:31;99347.81;;;13.18;66.34
72428;BME280;60419;48.880;18.036;2022-10-04T04:39:22;99357.00;;;12.91;67.09
72428;BME280;60419;48.880;18.036;2022-10-04T04:42:32;99342.53;;;13.13;66.11
72428;BME280;60419;48.880;18.036;2022-10-04T04:45:22;99349.94;;;13.30;66.29
72428;BME280;60419;48.880;18.036;2022-10-04T04:48:16;99360.06;;;13.07;65.60
72428;BME280;60419;48.880;18.036;2022-10-04T04:51:03;99366.00;;;12.69;67.05
72428;BME280;60419;48.880;18.036;2022-10-04T04:53:49;99361.00;;;12.62;68.09
72428;BME280;60419;48.880;18.036;2022-10-04T04:56:36;99367.59;;;12.70;67.76
72428;BME280;60419;48.880;18.036;2022-10-04T04:59:23;99368.69;;;12.38;68.23
72428;BME280;60419;48.880;18.036;2022-10-04T05:02:34;99367.69;;;12.56;68.03
72428;BME280;60419;48.880;18.036;2022-10-04T05:05:25;99363.16;;;12.74;67.55
72428;BME280;60419;48.880;18.036;2022-10-04T05:08:20;99367.34;;;12.89;66.98
72428;BME280;60419;48.880;18.036;2022-10-04T05:13:54;99377.19;;;11.50;71.48
72428;BME280;60419;48.880;18.036;2022-10-04T05:19:33;99393.25;;;12.05;70.44
72428;BME280;60419;48.880;18.036;2022-10-04T05:22:22;99397.00;;;12.31;69.54
72428;BME280;60419;48.880;18.036;2022-10-04T05:25:14;99404.44;;;12.48;69.09
72428;BME280;60419;48.880;18.036;2022-10-04T05:28:09;99395.06;;;12.09;70.46
72428;BME280;60419;48.880;18.036;2022-10-04T05:31:15;99401.63;;;12.53;69.09
72428;BME280;60419;48.880;18.036;2022-10-04T05:34:17;99397.88;;;12.41;68.80
72428;BME280;60419;48.880;18.036;2022-10-04T05:42:59;99404.66;;;12.61;68.15
72428;BME280;60419;48.880;18.036;2022-10-04T05:45:44;99407.22;;;12.88;67.42
72428;BME280;60419;48.880;18.036;2022-10-04T05:48:30;99411.41;;;12.41;67.90
72428;BME280;60419;48.880;18.036;2022-10-04T05:54:08;99425.50;;;12.51;68.13
72428;BME280;60419;48.880;18.036;2022-10-04T06:05:56;99428.44;;;11.68;71.15
72428;BME280;60419;48.880;18.036;2022-10-04T06:08:50;99410.34;;;11.41;71.93
72428;BME280;60419;48.880;18.036;2022-10-04T06:12:12;99430.78;;;11.47;71.65
72428;BME280;60419;48.880;18.036;2022-10-04T06:15:34;99437.34;;;11.83;70.57
72428;BME280;60419;48.880;18.036;2022-10-04T06:21:28;99441.34;;;11.85;69.92
72428;BME280;60419;48.880;18.036;2022-10-04T06:24:26;99445.13;;;11.98;69.73
72428;BME280;60419;48.880;18.036;2022-10-04T06:27:17;99445.50;;;11.55;70.65
72428;BME280;60419;48.880;18.036;2022-10-04T06:30:08;99444.72;;;12.05;69.11
72428;BME280;60419;48.880;18.036;2022-10-04T06:36:37;99443.72;;;12.60;68.04
72428;BME280;60419;48.880;18.036;2022-10-04T06:55:06;99461.91;;;12.59;67.81
72428;BME280;60419;48.880;18.036;2022-10-04T07:04:26;99475.63;;;12.63;66.35
72428;BME280;60419;48.880;18.036;2022-10-04T07:13:27;99483.34;;;12.69;66.24
72428;BME280;60419;48.880;18.036;2022-10-04T07:25:02;99489.63;;;12.56;65.79
72428;BME280;60419;48.880;18.036;2022-10-04T07:27:51;99492.66;;;12.04;66.56
72428;BME280;60419;48.880;18.036;2022-10-04T07:31:02;99491.94;;;12.49;65.70
72428;BME280;60419;48.880;18.036;2022-10-04T07:34:19;99506.34;;;12.58;65.14
72428;BME280;60419;48.880;18.036;2022-10-04T07:37:10;99497.41;;;12.35;65.69
72428;BME280;60419;48.880;18.036;2022-10-04T07:40:29;99496.84;;;12.10;66.01
72428;BME280;60419;48.880;18.036;2022-10-04T07:43:25;99511.25;;;12.33;66.23
72428;BME280;60419;48.880;18.036;2022-10-04T07:46:22;99501.69;;;12.72;65.54
72428;BME280;60419;48.880;18.036;2022-10-04T07:49:19;99500.94;;;12.81;65.62
72428;BME280;60419;48.880;18.036;2022-10-04T07:58:53;99493.31;;;13.14;63.78
72428;BME280;60419;48.880;18.036;2022-10-04T08:05:21;99503.81;;;12.39;66.71
72428;BME280;60419;48.880;18.036;2022-10-04T08:08:31;99516.72;;;12.56;65.85
72428;BME280;60419;48.880;18.036;2022-10-04T08:11:35;99514.41;;;11.99;68.22
72428;BME280;60419;48.880;18.036;2022-10-04T08:17:59;99533.38;;;11.99;68.46
72428;BME280;60419;48.880;18.036;2022-10-04T08:20:54;99530.72;;;12.22;68.28
72428;BME280;60419;48.880;18.036;2022-10-04T08:35:53;99554.94;;;10.27;78.60
72428;BME280;60419;48.880;18.036;2022-10-04T08:38:53;99552.38;;;10.54;77.64
72428;BME280;60419;48.880;18.036;2022-10-04T08:42:00;99564.28;;;10.34;78.80
72428;BME280;60419;48.880;18.036;2022-10-04T09:12:40;99580.69;;;11.27;74.01
72428;BME280;60419;48.880;18.036;2022-10-04T09:28:05;99572.22;;;11.01;72.69
72428;BME280;60419;48.880;18.036;2022-10-04T09:31:22;99592.69;;;11.54;72.93
72428;BME280;60419;48.880;18.036;2022-10-04T09:37:49;99584.56;;;12.51;72.26
72428;BME280;60419;48.880;18.036;2022-10-04T09:47:24;99600.53;;;13.34;69.69
72428;BME280;60419;48.880;18.036;2022-10-04T09:50:27;99598.91;;;13.33;70.11
72428;BME280;60419;48.880;18.036;2022-10-04T09:56:47;99603.16;;;13.79;68.22
72428;BME280;60419;48.880;18.036;2022-10-04T09:59:47;99606.66;;;13.48;69.49
72428;BME280;60419;48.880;18.036;2022-10-04T10:11:52;99608.84;;;13.60;68.30
72428;BME280;60419;48.880;18.036;2022-10-04T10:15:16;99615.94;;;13.78;67.15
72428;BME280;60419;48.880;18.036;2022-10-04T10:46:33;99613.38;;;12.47;61.84
72428;BME280;60419;48.880;18.036;2022-10-04T10:58:41;99628.00;;;13.41;61.93
72428;BME280;60419;48.880;18.036;2022-10-04T11:07:52;99634.72;;;13.97;61.62
72428;BME280;60419;48.880;18.036;2022-10-04T11:11:28;99626.94;;;13.73;59.55
72428;BME280;60419;48.880;18.036;2022-10-04T11:17:45;99630.31;;;14.27;59.28
72428;BME280;60419;48.880;18.036;2022-10-04T11:36:39;99578.97;;;14.00;58.03
72428;BME280;60419;48.880;18.036;2022-10-04T11:49:11;99647.31;;;14.50;57.07
72428;BME280;60419;48.880;18.036;2022-10-04T11:58:26;99635.75;;;14.19;55.47
72428;BME280;60419;48.880;18.036;2022-10-04T12:05:02;99634.72;;;14.54;55.47
72428;BME280;60419;48.880;18.036;2022-10-04T12:26:48;99619.88;;;14.87;54.58
72428;BME280;60419;48.880;18.036;2022-10-04T12:33:11;99617.13;;;15.39;52.76
72428;BME280;60419;48.880;18.036;2022-10-04T12:39:02;99614.25;;;16.00;51.09
72428;BME280;60419;48.880;18.036;2022-10-04T12:48:40;99616.38;;;14.86;53.93
72428;BME280;60419;48.880;18.036;2022-10-04T12:54:42;99607.44;;;14.11;54.80
72428;BME280;60419;48.880;18.036;2022-10-04T13:00:24;99607.53;;;14.63;55.51
72428;BME280;60419;48.880;18.036;2022-10-04T13:03:19;99606.25;;;13.95;56.17
72428;BME280;60419;48.880;18.036;2022-10-04T13:09:14;99601.31;;;14.54;52.19
72428;BME280;60419;48.880;18.036;2022-10-04T13:15:26;99621.00;;;14.77;52.62
72428;BME280;60419;48.880;18.036;2022-10-04T13:18:33;99623.09;;;14.97;52.35
72428;BME280;60419;48.880;18.036;2022-10-04T13:27:49;99618.75;;;14.79;52.05
72428;BME280;60419;48.880;18.036;2022-10-04T13:31:00;99624.22;;;15.05;52.13
72428;BME280;60419;48.880;18.036;2022-10-04T13:33:59;99626.72;;;14.58;53.48
72428;BME280;60419;48.880;18.036;2022-10-04T13:43:09;99640.53;;;15.23;51.45
72428;BME280;60419;48.880;18.036;2022-10-04T14:25:03;99655.72;;;15.41;54.62
72428;BME280;60419;48.880;18.036;2022-10-04T14:28:15;99655.84;;;15.45;54.20
72428;BME280;60419;48.880;18.036;2022-10-04T14:31:37;99655.44;;;14.90;55.90
72428;BME280;60419;48.880;18.036;2022-10-04T14:47:14;99655.88;;;15.18;54.87
72428;BME280;60419;48.880;18.036;2022-10-04T14:50:48;99651.00;;;15.68;52.69
72428;BME280;60419;48.880;18.036;2022-10-04T14:59:59;99648.59;;;15.83;52.42
72428;BME280;60419;48.880;18.036;2022-10-04T15:06:12;99653.25;;;15.66;52.81
72428;BME280;60419;48.880;18.036;2022-10-04T15:09:12;99651.38;;;16.13;51.29
72428;BME280;60419;48.880;18.036;2022-10-04T15:15:22;99648.88;;;16.88;49.56
72428;BME280;60419;48.880;18.036;2022-10-04T15:18:25;99656.50;;;17.16;48.70
72428;BME280;60419;48.880;18.036;2022-10-04T15:33:55;99662.53;;;17.22;50.00
72428;BME280;60419;48.880;18.036;2022-10-04T15:43:00;99675.13;;;18.14;59.72
72428;BME280;60419;48.880;18.036;2022-10-04T15:49:27;99685.56;;;18.98;45.63
72428;BME280;60419;48.880;18.036;2022-10-04T15:58:30;99692.63;;;17.88;48.06
72428;BME280;60419;48.880;18.036;2022-10-04T16:01:31;99691.06;;;17.33;49.03
72428;BME280;60419;48.880;18.036;2022-10-04T16:10:16;99697.81;;;16.85;49.64
72428;BME280;60419;48.880;18.036;2022-10-04T16:22:08;99694.53;;;16.70;50.54
72428;BME280;60419;48.880;18.036;2022-10-04T16:46:43;99716.38;;;12.97;63.70
72428;BME280;60419;48.880;18.036;2022-10-04T16:49:37;99720.75;;;13.88;60.81
72428;BME280;60419;48.880;18.036;2022-10-04T17:07:26;99747.59;;;14.52;60.33
72428;BME280;60419;48.880;18.036;2022-10-04T17:10:39;99750.47;;;14.56;60.18
72428;BME280;60419;48.880;18.036;2022-10-04T17:13:46;99753.81;;;14.13;60.76
72428;BME280;60419;48.880;18.036;2022-10-04T17:16:38;99755.97;;;13.71;61.77
72428;BME280;60419;48.880;18.036;2022-10-04T17:19:47;99756.94;;;13.97;61.89
72428;BME280;60419;48.880;18.036;2022-10-04T17:32:36;99761.53;;;13.52;62.09
72428;BME280;60419;48.880;18.036;2022-10-04T17:38:50;99770.28;;;13.49;62.42
72428;BME280;60419;48.880;18.036;2022-10-04T17:41:52;99773.63;;;12.95;64.28
72428;BME280;60419;48.880;18.036;2022-10-04T17:45:03;99780.94;;;12.40;66.21
72428;BME280;60419;48.880;18.036;2022-10-04T17:47:59;99786.22;;;12.17;67.26
72428;BME280;60419;48.880;18.036;2022-10-04T17:54:47;99792.41;;;12.78;64.67
72428;BME280;60419;48.880;18.036;2022-10-04T17:58:13;99806.47;;;12.20;66.47
72428;BME280;60419;48.880;18.036;2022-10-04T18:01:12;99805.38;;;11.88;67.33
72428;BME280;60419;48.880;18.036;2022-10-04T18:07:22;99796.31;;;11.79;67.82
72428;BME280;60419;48.880;18.036;2022-10-04T18:10:24;99773.63;;;11.94;66.08
72428;BME280;60419;48.880;18.036;2022-10-04T18:13:16;99806.19;;;11.88;67.16
72428;BME280;60419;48.880;18.036;2022-10-04T18:16:07;99797.91;;;11.80;67.52
72428;BME280;60419;48.880;18.036;2022-10-04T18:18:54;99805.94;;;11.85;67.71
72428;BME280;60419;48.880;18.036;2022-10-04T18:21:48;99799.06;;;10.98;70.71
72428;BME280;60419;48.880;18.036;2022-10-04T18:24:35;99816.69;;;11.38;69.74
72428;BME280;60419;48.880;18.036;2022-10-04T18:27:23;99828.81;;;11.41;69.81
72428;BME280;60419;48.880;18.036;2022-10-04T18:30:18;99822.75;;;11.06;71.01
72428;BME280;60419;48.880;18.036;2022-10-04T18:33:12;99827.41;;;10.76;72.49
72428;BME280;60419;48.880;18.036;2022-10-04T18:36:04;99813.84;;;9.99;75.55
72428;BME280;60419;48.880;18.036;2022-10-04T18:42:14;99823.66;;;9.85;76.89
72428;BME280;60419;48.880;18.036;2022-10-04T18:48:05;99834.53;;;10.67;73.98
72428;BME280;60419;48.880;18.036;2022-10-04T18:51:20;99841.34;;;11.13;71.72
72428;BME280;60419;48.880;18.036;2022-10-04T18:57:38;99836.84;;;11.46;70.24
72428;BME280;60419;48.880;18.036;2022-10-04T19:01:13;99853.19;;;9.66;76.55
72428;BME280;60419;48.880;18.036;2022-10-04T19:04:42;99851.81;;;9.08;79.62
72428;BME280;60419;48.880;18.036;2022-10-04T19:25:36;99861.16;;;11.27;69.20
72428;BME280;60419;48.880;18.036;2022-10-04T19:28:27;99873.00;;;11.12;69.12
72428;BME280;60419;48.880;18.036;2022-10-04T19:31:21;99880.16;;;11.22;68.49
72428;BME280;60419;48.880;18.036;2022-10-04T19:34:13;99867.69;;;11.26;67.83
72428;BME280;60419;48.880;18.036;2022-10-04T19:37:26;99884.53;;;11.18;67.77
72428;BME280;60419;48.880;18.036;2022-10-04T19:49:28;99895.41;;;10.89;69.43
72428;BME280;60419;48.880;18.036;2022-10-04T19:56:17;99900.25;;;10.92;68.33
72428;BME280;60419;48.880;18.036;2022-10-04T19:59:04;99898.81;;;10.99;68.18
72428;BME280;60419;48.880;18.036;2022-10-04T20:01:53;99899.94;;;10.93;68.14
72428;BME280;60419;48.880;18.036;2022-10-04T20:04:38;99911.72;;;10.78;68.68
72428;BME280;60419;48.880;18.036;2022-10-04T20:07:26;99900.94;;;10.73;69.34
72428;BME280;60419;48.880;18.036;2022-10-04T20:10:31;99904.34;;;10.84;68.94
72428;BME280;60419;48.880;18.036;2022-10-04T20:13:22;99907.91;;;10.79;69.02
72428;BME280;60419;48.880;18.036;2022-10-04T20:16:09;99897.38;;;10.78;67.92
72428;BME280;60419;48.880;18.036;2022-10-04T20:18:58;99903.25;;;10.27;70.06
72428;BME280;60419;48.880;18.036;2022-10-04T20:21:44;99890.69;;;9.67;72.87
72428;BME280;60419;48.880;18.036;2022-10-04T20:30:13;99915.19;;;8.96;77.62
72428;BME280;60419;48.880;18.036;2022-10-04T20:32:58;99932.94;;;9.22;77.51
72428;BME280;60419;48.880;18.036;2022-10-04T20:36:04;99937.78;;;9.20;77.55
72428;BME280;60419;48.880;18.036;2022-10-04T20:38:57;99923.53;;;9.10;76.85
72428;BME280;60419;48.880;18.036;2022-10-04T20:42:02;99953.88;;;9.51;75.68
72428;BME280;60419;48.880;18.036;2022-10-04T20:47:54;99946.69;;;9.86;72.08
72428;BME280;60419;48.880;18.036;2022-10-04T20:50:41;99938.28;;;9.98;71.03
72428;BME280;60419;48.880;18.036;2022-10-04T20:53:31;99947.09;;;10.13;70.38
72428;BME280;60419;48.880;18.036;2022-10-04T20:59:12;99949.88;;;9.98;70.05
72428;BME280;60419;48.880;18.036;2022-10-04T21:02:00;99956.28;;;9.58;71.62
72428;BME280;60419;48.880;18.036;2022-10-04T21:04:49;99953.28;;;9.64;72.08
72428;BME280;60419;48.880;18.036;2022-10-04T21:07:37;99952.91;;;9.86;70.76
72428;BME280;60419;48.880;18.036;2022-10-04T21:10:22;99956.94;;;9.89;69.91
72428;BME280;60419;48.880;18.036;2022-10-04T21:13:37;99952.66;;;9.83;69.79
72428;BME280;60419;48.880;18.036;2022-10-04T21:25:31;99970.84;;;7.72;80.72
72428;BME280;60419;48.880;18.036;2022-10-04T21:28:28;99978.16;;;7.87;79.49
72428;BME280;60419;48.880;18.036;2022-10-04T21:31:15;99974.50;;;8.45;77.17
72428;BME280;60419;48.880;18.036;2022-10-04T21:34:00;99976.91;;;8.82;74.70
72428;BME280;60419;48.880;18.036;2022-10-04T21:36:45;99975.06;;;8.62;74.20
72428;BME280;60419;48.880;18.036;2022-10-04T21:39:31;99976.66;;;8.78;75.03
72428;BME280;60419;48.880;18.036;2022-10-04T21:42:16;99976.63;;;9.19;74.33
72428;BME280;60419;48.880;18.036;2022-10-04T21:45:02;99981.44;;;9.22;73.13
72428;BME280;60419;48.880;18.036;2022-10-04T21:47:47;99970.19;;;8.79;73.46
72428;BME280;60419;48.880;18.036;2022-10-04T21:50:33;99969.69;;;8.62;73.56
72428;BME280;60419;48.880;18.036;2022-10-04T21:53:19;99977.72;;;8.93;72.68
72428;BME280;60419;48.880;18.036;2022-10-04T21:56:04;99984.16;;;9.12;71.38
72428;BME280;60419;48.880;18.036;2022-10-04T21:58:51;99987.13;;;9.05;71.71
72428;BME280;60419;48.880;18.036;2022-10-04T22:01:37;99986.31;;;9.05;71.55
72428;BME280;60419;48.880;18.036;2022-10-04T22:04:22;99990.59;;;9.21;71.57
72428;BME280;60419;48.880;18.036;2022-10-04T22:07:07;99979.56;;;9.23;71.12
72428;BME280;60419;48.880;18.036;2022-10-04T22:09:54;99983.09;;;9.03;71.58
72428;BME280;60419;48.880;18.036;2022-10-04T22:12:40;99985.22;;;9.21;70.94
72428;BME280;60419;48.880;18.036;2022-10-04T22:15:26;99991.16;;;9.23;70.70
72428;BME280;60419;48.880;18.036;2022-10-04T22:18:12;99988.22;;;9.15;71.39
72428;BME280;60419;48.880;18.036;2022-10-04T22:20:58;100000.59;;;9.11;72.14
72428;BME280;60419;48.880;18.036;2022-10-04T22:23:43;99990.13;;;8.89;73.52
72428;BME280;60419;48.880;18.036;2022-10-04T22:26:30;100005.75;;;9.02;73.14
72428;BME280;60419;48.880;18.036;2022-10-04T22:29:16;100002.78;;;8.93;74.14
72428;BME280;60419;48.880;18.036;2022-10-04T22:32:10;99995.78;;;8.92;74.44
72428;BME280;60419;48.880;18.036;2022-10-04T22:35:05;100003.06;;;8.76;75.22
72428;BME280;60419;48.880;18.036;2022-10-04T22:37:55;100011.13;;;8.61;75.36
72428;BME280;60419;48.880;18.036;2022-10-04T22:40:41;99987.16;;;8.80;74.46
72428;BME280;60419;48.880;18.036;2022-10-04T22:43:26;99994.16;;;9.06;72.48
72428;BME280;60419;48.880;18.036;2022-10-04T22:46:17;99988.69;;;9.27;71.24
72428;BME280;60419;48.880;18.036;2022-10-04T22:49:09;99990.41;;;8.72;72.12
72428;BME280;60419;48.880;18.036;2022-10-04T22:51:56;99996.84;;;9.06;70.43
72428;BME280;60419;48.880;18.036;2022-10-04T22:54:45;99993.06;;;9.18;69.85
72428;BME280;60419;48.880;18.036;2022-10-04T22:57:31;99998.69;;;9.21;69.54
72428;BME280;60419;48.880;18.036;2022-10-04T23:00:16;100003.59;;;8.58;71.43
72428;BME280;60419;48.880;18.036;2022-10-04T23:03:11;100003.56;;;8.32;73.07
72428;BME280;60419;48.880;18.036;2022-10-04T23:06:01;99993.91;;;8.57;71.97
72428;BME280;60419;48.880;18.036;2022-10-04T23:08:47;99991.75;;;8.64;71.21
72428;BME280;60419;48.880;18.036;2022-10-04T23:11:32;99995.25;;;8.59;71.89
72428;BME280;60419;48.880;18.036;2022-10-04T23:14:17;99985.56;;;8.74;70.19
72428;BME280;60419;48.880;18.036;2022-10-04T23:17:28;99987.16;;;8.85;69.47
72428;BME280;60419;48.880;18.036;2022-10-04T23:20:16;100000.63;;;8.70;70.03
72428;BME280;60419;48.880;18.036;2022-10-04T23:23:08;100001.44;;;8.55;71.42
72428;BME280;60419;48.880;18.036;2022-10-04T23:25:55;100002.81;;;8.78;70.82
72428;BME280;60419;48.880;18.036;2022-10-04T23:28:40;100001.72;;;8.63;70.73
72428;BME280;60419;48.880;18.036;2022-10-04T23:31:26;99997.66;;;8.71;69.67
72428;BME280;60419;48.880;18.036;2022-10-04T23:34:33;100001.97;;;8.77;69.46
72428;BME280;60419;48.880;18.036;2022-10-04T23:37:21;100005.75;;;8.56;70.13
72428;BME280;60419;48.880;18.036;2022-10-04T23:40:08;100030.78;;;8.56;70.16
72428;BME280;60419;48.880;18.036;2022-10-04T23:42:55;100041.78;;;8.24;71.00
72428;BME280;60419;48.880;18.036;2022-10-04T23:45:41;100040.44;;;8.32;70.75
72428;BME280;60419;48.880;18.036;2022-10-04T23:48:28;100040.19;;;8.43;70.18
72428;BME280;60419;48.880;18.036;2022-10-04T23:51:18;100041.84;;;8.55;70.12
72428;BME280;60419;48.880;18.036;2022-10-04T23:54:04;100043.03;;;8.01;71.04
72428;BME280;60419;48.880;18.036;2022-10-04T23:56:50;100036.38;;;8.14;70.63
72428;BME280;60419;48.880;18.036;2022-10-04T23:59:37;100041.78;;;8.29;70.68
